sensor_id;sensor_type;location;lat;lon;timestamp;pressure;altitude;pressure_sealevel;temperature;humidity
63343;BME280;49465;57.664;39.686;2023-05-20T00:00:45;101423.91;;;13.28;48.50
63343;BME280;49465;57.664;39.686;2023-05-20T00:03:17;101425.03;;;13.40;48.92
63343;BME280;49465;57.664;39.686;2023-05-20T00:05:45;101419.44;;;13.30;48.71
63343;BME280;49465;57.664;39.686;2023-05-20T00:08:11;101423.78;;;13.31;48.14
63343;BME280;49465;57.664;39.686;2023-05-20T00:10:38;101422.06;;;13.30;48.56
63343;BME280;49465;57.664;39.686;2023-05-20T00:13:05;101423.88;;;13.30;48.19
63343;BME280;49465;57.664;39.686;2023-05-20T00:15:34;101423.78;;;13.31;48.29
63343;BME280;49465;57.664;39.686;2023-05-20T00:18:01;101415.00;;;13.31;48.21
63343;BME280;49465;57.664;39.686;2023-05-20T00:20:29;101424.72;;;13.30;48.67
63343;BME280;49465;57.664;39.686;2023-05-20T00:22:58;101423.78;;;13.31;48.67
63343;BME280;49465;57.664;39.686;2023-05-20T00:25:24;101421.25;;;13.30;48.94
63343;BME280;49465;57.664;39.686;2023-05-20T00:27:51;101424.88;;;13.27;48.44
63343;BME280;49465;57.664;39.686;2023-05-20T00:30:20;101426.63;;;13.26;49.08
63343;BME280;49465;57.664;39.686;2023-05-20T00:32:47;101420.38;;;13.29;48.72
63343;BME280;49465;57.664;39.686;2023-05-20T00:35:15;101423.88;;;13.30;48.85
63343;BME280;49465;57.664;39.686;2023-05-20T00:37:42;101429.06;;;13.31;48.77
63343;BME280;49465;57.664;39.686;2023-05-20T00:40:09;101417.72;;;13.29;48.72
63343;BME280;49465;57.664;39.686;2023-05-20T00:42:38;101423.00;;;13.29;48.87
63343;BME280;49465;57.664;39.686;2023-05-20T00:45:05;101429.97;;;13.30;48.82
63343;BME280;49465;57.664;39.686;2023-05-20T00:47:33;101428.03;;;13.34;48.99
63343;BME280;49465;57.664;39.686;2023-05-20T00:50:01;101425.72;;;13.28;48.87
63343;BME280;49465;57.664;39.686;2023-05-20T00:52:31;101430.97;;;13.28;49.49
63343;BME280;49465;57.664;39.686;2023-05-20T00:55:00;101433.00;;;13.38;49.33
63343;BME280;49465;57.664;39.686;2023-05-20T00:57:36;101429.78;;;13.49;48.50
63343;BME280;49465;57.664;39.686;2023-05-20T01:00:03;101420.28;;;13.31;49.53
63343;BME280;49465;57.664;39.686;2023-05-20T01:02:33;101427.66;;;13.24;49.11
63343;BME280;49465;57.664;39.686;2023-05-20T01:04:59;101424.13;;;13.25;49.70
63343;BME280;49465;57.664;39.686;2023-05-20T01:07:26;101430.16;;;13.27;49.20
63343;BME280;49465;57.664;39.686;2023-05-20T01:09:53;101430.31;;;13.24;49.63
63343;BME280;49465;57.664;39.686;2023-05-20T01:13:00;101434.50;;;13.58;48.00
63343;BME280;49465;57.664;39.686;2023-05-20T01:15:30;101436.75;;;13.34;49.10
63343;BME280;49465;57.664;39.686;2023-05-20T01:17:59;101429.97;;;13.30;49.31
63343;BME280;49465;57.664;39.686;2023-05-20T01:20:31;101432.53;;;13.32;49.75
63343;BME280;49465;57.664;39.686;2023-05-20T01:23:00;101437.03;;;13.30;49.24
63343;BME280;49465;57.664;39.686;2023-05-20T01:25:27;101436.09;;;13.31;49.45
63343;BME280;49465;57.664;39.686;2023-05-20T01:27:55;101443.66;;;13.37;49.52
63343;BME280;49465;57.664;39.686;2023-05-20T01:30:28;101443.75;;;13.35;49.36
63343;BME280;49465;57.664;39.686;2023-05-20T01:33:00;101440.66;;;13.43;48.98
63343;BME280;49465;57.664;39.686;2023-05-20T01:35:29;101444.94;;;13.30;49.64
63343;BME280;49465;57.664;39.686;2023-05-20T01:37:57;101452.56;;;13.34;49.56
63343;BME280;49465;57.664;39.686;2023-05-20T01:40:25;101456.31;;;13.30;49.47
63343;BME280;49465;57.664;39.686;2023-05-20T01:42:53;101446.88;;;13.26;49.55
63343;BME280;49465;57.664;39.686;2023-05-20T01:45:22;101447.72;;;13.26;49.76
63343;BME280;49465;57.664;39.686;2023-05-20T01:47:49;101457.84;;;13.34;49.89
63343;BME280;49465;57.664;39.686;2023-05-20T01:50:18;101447.72;;;13.26;49.92
63343;BME280;49465;57.664;39.686;2023-05-20T01:52:44;101456.63;;;13.24;49.96
63343;BME280;49465;57.664;39.686;2023-05-20T01:55:11;101452.13;;;13.26;50.02
63343;BME280;49465;57.664;39.686;2023-05-20T01:57:37;101454.75;;;13.26;50.19
63343;BME280;49465;57.664;39.686;2023-05-20T02:00:04;101453.84;;;13.27;50.03
63343;BME280;49465;57.664;39.686;2023-05-20T02:02:31;101449.66;;;13.23;50.35
63343;BME280;49465;57.664;39.686;2023-05-20T02:04:58;101449.59;;;13.24;49.98
63343;BME280;49465;57.664;39.686;2023-05-20T02:07:24;101448.47;;;13.29;50.13
63343;BME280;49465;57.664;39.686;2023-05-20T02:09:50;101451.22;;;13.27;49.96
63343;BME280;49465;57.664;39.686;2023-05-20T02:12:17;101446.53;;;13.32;50.00
63343;BME280;49465;57.664;39.686;2023-05-20T02:14:44;101445.50;;;13.35;50.10
63343;BME280;49465;57.664;39.686;2023-05-20T02:17:12;101444.66;;;13.34;50.00
63343;BME280;49465;57.664;39.686;2023-05-20T02:19:41;101448.41;;;13.30;49.99
63343;BME280;49465;57.664;39.686;2023-05-20T02:22:08;101450.00;;;13.33;50.23
63343;BME280;49465;57.664;39.686;2023-05-20T02:24:34;101452.91;;;13.28;50.30
63343;BME280;49465;57.664;39.686;2023-05-20T02:27:00;101449.94;;;13.34;49.99
63343;BME280;49465;57.664;39.686;2023-05-20T02:29:30;101447.63;;;13.28;50.10
63343;BME280;49465;57.664;39.686;2023-05-20T02:31:57;101443.16;;;13.30;50.28
63343;BME280;49465;57.664;39.686;2023-05-20T02:34:23;101450.22;;;13.30;50.45
63343;BME280;49465;57.664;39.686;2023-05-20T02:36:53;101450.25;;;13.28;50.39
63343;BME280;49465;57.664;39.686;2023-05-20T02:39:22;101444.22;;;13.26;50.69
63343;BME280;49465;57.664;39.686;2023-05-20T02:41:48;101440.50;;;13.30;50.83
63343;BME280;49465;57.664;39.686;2023-05-20T02:44:18;101442.72;;;13.38;50.29
63343;BME280;49465;57.664;39.686;2023-05-20T02:46:44;101433.00;;;13.38;50.38
63343;BME280;49465;57.664;39.686;2023-05-20T02:49:10;101446.28;;;13.37;50.48
63343;BME280;49465;57.664;39.686;2023-05-20T02:51:37;101438.97;;;13.42;50.47
63343;BME280;49465;57.664;39.686;2023-05-20T02:54:03;101443.66;;;13.37;50.84
63343;BME280;49465;57.664;39.686;2023-05-20T02:56:29;101447.31;;;13.34;50.95
63343;BME280;49465;57.664;39.686;2023-05-20T02:58:57;101443.38;;;13.41;50.56
63343;BME280;49465;57.664;39.686;2023-05-20T03:01:23;101452.22;;;13.40;50.66
63343;BME280;49465;57.664;39.686;2023-05-20T03:03:50;101447.63;;;13.44;50.65
63343;BME280;49465;57.664;39.686;2023-05-20T03:06:17;101453.47;;;13.49;50.41
63343;BME280;49465;57.664;39.686;2023-05-20T03:08:43;101449.06;;;13.50;50.63
63343;BME280;49465;57.664;39.686;2023-05-20T03:11:10;101448.13;;;13.51;50.45
63343;BME280;49465;57.664;39.686;2023-05-20T03:13:36;101446.13;;;13.54;50.41
63343;BME280;49465;57.664;39.686;2023-05-20T03:16:03;101440.97;;;13.53;50.57
63343;BME280;49465;57.664;39.686;2023-05-20T03:18:29;101452.28;;;13.55;50.25
63343;BME280;49465;57.664;39.686;2023-05-20T03:20:56;101448.78;;;13.54;50.61
63343;BME280;49465;57.664;39.686;2023-05-20T03:23:23;101457.19;;;13.61;50.42
63343;BME280;49465;57.664;39.686;2023-05-20T03:25:49;101454.28;;;13.65;50.34
63343;BME280;49465;57.664;39.686;2023-05-20T03:28:18;101456.97;;;13.64;50.36
63343;BME280;49465;57.664;39.686;2023-05-20T03:30:44;101452.47;;;13.66;50.80
63343;BME280;49465;57.664;39.686;2023-05-20T03:33:11;101463.00;;;13.66;50.61
63343;BME280;49465;57.664;39.686;2023-05-20T03:35:38;101461.16;;;13.68;50.46
63343;BME280;49465;57.664;39.686;2023-05-20T03:38:07;101460.97;;;13.71;50.30
63343;BME280;49465;57.664;39.686;2023-05-20T03:40:33;101463.69;;;13.70;50.61
63343;BME280;49465;57.664;39.686;2023-05-20T03:43:02;101467.38;;;13.81;50.56
63343;BME280;49465;57.664;39.686;2023-05-20T03:45:31;101469.00;;;13.84;50.62
63343;BME280;49465;57.664;39.686;2023-05-20T03:48:00;101462.13;;;13.81;50.04
63343;BME280;49465;57.664;39.686;2023-05-20T03:50:28;101465.34;;;13.87;50.23
63343;BME280;49465;57.664;39.686;2023-05-20T03:52:56;101465.34;;;13.87;50.24
63343;BME280;49465;57.664;39.686;2023-05-20T03:55:22;101466.56;;;13.95;50.09
63343;BME280;49465;57.664;39.686;2023-05-20T03:57:49;101471.66;;;13.98;50.17
63343;BME280;49465;57.664;39.686;2023-05-20T04:00:16;101469.69;;;14.02;50.18
63343;BME280;49465;57.664;39.686;2023-05-20T04:02:43;101466.69;;;14.08;50.02
63343;BME280;49465;57.664;39.686;2023-05-20T04:05:13;101466.41;;;14.13;49.50
63343;BME280;49465;57.664;39.686;2023-05-20T04:07:39;101464.63;;;14.13;49.97
63343;BME280;49465;57.664;39.686;2023-05-20T04:10:06;101464.13;;;14.21;49.86
63343;BME280;49465;57.664;39.686;2023-05-20T04:12:33;101470.81;;;14.27;49.98
63343;BME280;49465;57.664;39.686;2023-05-20T04:15:02;101474.13;;;14.30;49.98
63343;BME280;49465;57.664;39.686;2023-05-20T04:17:29;101471.88;;;14.38;49.81
63343;BME280;49465;57.664;39.686;2023-05-20T04:19:59;101480.50;;;14.56;49.63
63343;BME280;49465;57.664;39.686;2023-05-20T04:22:26;101476.88;;;14.57;49.04
63343;BME280;49465;57.664;39.686;2023-05-20T04:24:55;101476.50;;;14.63;49.02
63343;BME280;49465;57.664;39.686;2023-05-20T04:27:21;101481.31;;;14.57;49.70
63343;BME280;49465;57.664;39.686;2023-05-20T04:29:48;101473.84;;;14.49;50.26
63343;BME280;49465;57.664;39.686;2023-05-20T04:32:17;101472.63;;;14.55;50.55
63343;BME280;49465;57.664;39.686;2023-05-20T04:34:46;101469.16;;;14.69;50.02
63343;BME280;49465;57.664;39.686;2023-05-20T04:37:13;101469.03;;;14.85;49.58
63343;BME280;49465;57.664;39.686;2023-05-20T04:39:43;101470.97;;;14.95;49.65
63343;BME280;49465;57.664;39.686;2023-05-20T04:42:09;101467.56;;;15.08;48.81
63343;BME280;49465;57.664;39.686;2023-05-20T04:44:36;101475.25;;;15.11;49.16
63343;BME280;49465;57.664;39.686;2023-05-20T04:47:03;101472.22;;;15.17;48.84
63343;BME280;49465;57.664;39.686;2023-05-20T04:49:29;101464.34;;;15.30;48.80
63343;BME280;49465;57.664;39.686;2023-05-20T04:51:55;101473.09;;;15.45;48.87
63343;BME280;49465;57.664;39.686;2023-05-20T04:54:22;101466.22;;;15.55;48.37
63343;BME280;49465;57.664;39.686;2023-05-20T04:56:48;101467.66;;;15.73;48.09
63343;BME280;49465;57.664;39.686;2023-05-20T04:59:16;101465.94;;;15.72;48.27
63343;BME280;49465;57.664;39.686;2023-05-20T05:01:42;101468.22;;;15.78;48.14
63343;BME280;49465;57.664;39.686;2023-05-20T05:04:08;101470.84;;;15.91;48.16
63343;BME280;49465;57.664;39.686;2023-05-20T05:06:35;101471.94;;;16.01;48.00
63343;BME280;49465;57.664;39.686;2023-05-20T05:09:04;101466.63;;;16.14;47.64
63343;BME280;49465;57.664;39.686;2023-05-20T05:11:31;101477.53;;;16.23;47.47
63343;BME280;49465;57.664;39.686;2023-05-20T05:13:57;101468.94;;;16.32;47.04
63343;BME280;49465;57.664;39.686;2023-05-20T05:16:23;101467.44;;;16.40;46.81
63343;BME280;49465;57.664;39.686;2023-05-20T05:18:50;101470.28;;;16.50;46.92
63343;BME280;49465;57.664;39.686;2023-05-20T05:21:17;101475.19;;;16.56;46.56
63343;BME280;49465;57.664;39.686;2023-05-20T05:23:43;101465.94;;;16.62;46.56
63343;BME280;49465;57.664;39.686;2023-05-20T05:26:13;101475.97;;;16.70;46.18
63343;BME280;49465;57.664;39.686;2023-05-20T05:28:41;101474.78;;;16.74;46.21
63343;BME280;49465;57.664;39.686;2023-05-20T05:31:11;101475.13;;;16.69;46.38
63343;BME280;49465;57.664;39.686;2023-05-20T05:33:37;101471.09;;;16.76;45.74
63343;BME280;49465;57.664;39.686;2023-05-20T05:36:04;101465.19;;;16.73;46.05
63343;BME280;49465;57.664;39.686;2023-05-20T05:38:31;101464.72;;;16.79;46.05
63343;BME280;49465;57.664;39.686;2023-05-20T05:40:58;101460.41;;;16.78;45.91
63343;BME280;49465;57.664;39.686;2023-05-20T05:43:25;101457.03;;;16.76;46.17
63343;BME280;49465;57.664;39.686;2023-05-20T05:45:54;101460.94;;;16.83;45.77
63343;BME280;49465;57.664;39.686;2023-05-20T05:48:21;101464.09;;;16.88;45.66
63343;BME280;49465;57.664;39.686;2023-05-20T05:50:48;101462.09;;;16.92;45.61
63343;BME280;49465;57.664;39.686;2023-05-20T05:53:17;101462.81;;;16.81;45.61
63343;BME280;49465;57.664;39.686;2023-05-20T05:55:44;101457.09;;;16.87;45.32
63343;BME280;49465;57.664;39.686;2023-05-20T05:58:11;101462.53;;;16.86;45.57
63343;BME280;49465;57.664;39.686;2023-05-20T06:00:38;101462.63;;;16.84;45.45
63343;BME280;49465;57.664;39.686;2023-05-20T06:03:04;101470.13;;;16.90;45.24
63343;BME280;49465;57.664;39.686;2023-05-20T06:05:31;101468.94;;;16.94;45.44
63343;BME280;49465;57.664;39.686;2023-05-20T06:07:58;101466.41;;;16.93;45.36
63343;BME280;49465;57.664;39.686;2023-05-20T06:10:29;101467.78;;;16.98;45.22
63343;BME280;49465;57.664;39.686;2023-05-20T06:12:55;101467.88;;;16.97;45.53
63343;BME280;49465;57.664;39.686;2023-05-20T06:15:22;101466.47;;;17.04;45.40
63343;BME280;49465;57.664;39.686;2023-05-20T06:17:51;101468.69;;;17.10;45.34
63343;BME280;49465;57.664;39.686;2023-05-20T06:20:17;101472.78;;;17.14;45.21
63343;BME280;49465;57.664;39.686;2023-05-20T06:22:44;101466.53;;;17.15;44.91
63343;BME280;49465;57.664;39.686;2023-05-20T06:25:11;101468.22;;;17.16;45.33
63343;BME280;49465;57.664;39.686;2023-05-20T06:27:38;101468.94;;;17.18;45.14
63343;BME280;49465;57.664;39.686;2023-05-20T06:30:07;101465.75;;;17.26;45.10
63343;BME280;49465;57.664;39.686;2023-05-20T06:32:34;101461.63;;;17.22;45.06
63343;BME280;49465;57.664;39.686;2023-05-20T06:35:00;101465.16;;;17.34;44.95
63343;BME280;49465;57.664;39.686;2023-05-20T06:37:26;101463.75;;;17.41;44.64
63343;BME280;49465;57.664;39.686;2023-05-20T06:39:53;101459.53;;;17.38;44.86
63343;BME280;49465;57.664;39.686;2023-05-20T06:42:22;101458.56;;;17.39;44.81
63343;BME280;49465;57.664;39.686;2023-05-20T06:44:48;101462.00;;;17.53;44.49
63343;BME280;49465;57.664;39.686;2023-05-20T06:47:17;101456.13;;;17.61;44.51
63343;BME280;49465;57.664;39.686;2023-05-20T06:49:47;101449.38;;;17.68;44.44
63343;BME280;49465;57.664;39.686;2023-05-20T06:52:13;101441.88;;;17.86;44.38
63343;BME280;49465;57.664;39.686;2023-05-20T06:54:42;101443.91;;;17.93;44.15
63343;BME280;49465;57.664;39.686;2023-05-20T06:57:09;101450.81;;;17.96;44.19
63343;BME280;49465;57.664;39.686;2023-05-20T06:59:38;101449.16;;;18.29;44.00
63343;BME280;49465;57.664;39.686;2023-05-20T07:02:05;101444.41;;;18.44;43.71
63343;BME280;49465;57.664;39.686;2023-05-20T07:04:31;101438.97;;;18.56;43.10
63343;BME280;49465;57.664;39.686;2023-05-20T07:06:57;101438.47;;;18.74;42.90
63343;BME280;49465;57.664;39.686;2023-05-20T07:09:24;101442.81;;;18.86;42.63
63343;BME280;49465;57.664;39.686;2023-05-20T07:11:50;101445.31;;;18.99;42.59
63343;BME280;49465;57.664;39.686;2023-05-20T07:14:17;101454.44;;;19.17;42.16
63343;BME280;49465;57.664;39.686;2023-05-20T07:16:43;101445.56;;;19.28;41.52
63343;BME280;49465;57.664;39.686;2023-05-20T07:19:10;101450.06;;;19.49;41.47
63343;BME280;49465;57.664;39.686;2023-05-20T07:21:36;101440.81;;;19.64;41.15
63343;BME280;49465;57.664;39.686;2023-05-20T07:24:02;101451.38;;;19.75;40.48
63343;BME280;49465;57.664;39.686;2023-05-20T07:26:29;101420.31;;;19.76;40.42
63343;BME280;49465;57.664;39.686;2023-05-20T07:28:58;101445.22;;;19.96;39.97
63343;BME280;49465;57.664;39.686;2023-05-20T07:31:25;101443.19;;;20.09;39.94
63343;BME280;49465;57.664;39.686;2023-05-20T07:33:52;101438.50;;;20.32;39.98
63343;BME280;49465;57.664;39.686;2023-05-20T07:36:21;101439.69;;;20.49;39.22
63343;BME280;49465;57.664;39.686;2023-05-20T07:38:48;101436.06;;;20.50;38.76
63343;BME280;49465;57.664;39.686;2023-05-20T07:41:14;101449.09;;;20.53;38.53
63343;BME280;49465;57.664;39.686;2023-05-20T07:43:40;101438.25;;;20.66;38.48
63343;BME280;49465;57.664;39.686;2023-05-20T07:46:12;101431.53;;;20.72;38.25
63343;BME280;49465;57.664;39.686;2023-05-20T07:48:40;101444.00;;;20.81;38.24
63343;BME280;49465;57.664;39.686;2023-05-20T07:51:07;101443.47;;;20.97;37.85
63343;BME280;49465;57.664;39.686;2023-05-20T07:53:33;101434.06;;;21.03;37.62
63343;BME280;49465;57.664;39.686;2023-05-20T07:56:04;101435.06;;;21.11;37.12
63343;BME280;49465;57.664;39.686;2023-05-20T07:58:31;101433.81;;;21.06;37.47
63343;BME280;49465;57.664;39.686;2023-05-20T08:00:57;101436.03;;;21.20;37.20
63343;BME280;49465;57.664;39.686;2023-05-20T08:03:24;101426.22;;;21.30;36.58
63343;BME280;49465;57.664;39.686;2023-05-20T08:05:51;101429.56;;;21.32;36.70
63343;BME280;49465;57.664;39.686;2023-05-20T08:08:18;101429.06;;;21.48;36.67
63343;BME280;49465;57.664;39.686;2023-05-20T08:10:44;101432.25;;;21.52;35.94
63343;BME280;49465;57.664;39.686;2023-05-20T08:13:11;101434.78;;;21.63;35.74
63343;BME280;49465;57.664;39.686;2023-05-20T08:15:37;101426.91;;;21.52;35.45
63343;BME280;49465;57.664;39.686;2023-05-20T08:18:03;101433.53;;;21.58;35.19
63343;BME280;49465;57.664;39.686;2023-05-20T08:20:30;101431.16;;;21.55;35.12
63343;BME280;49465;57.664;39.686;2023-05-20T08:22:56;101428.88;;;21.69;35.30
63343;BME280;49465;57.664;39.686;2023-05-20T08:25:22;101426.44;;;21.86;35.32
63343;BME280;49465;57.664;39.686;2023-05-20T08:28:00;101429.25;;;21.84;34.51
63343;BME280;49465;57.664;39.686;2023-05-20T08:30:27;101433.06;;;21.82;33.89
63343;BME280;49465;57.664;39.686;2023-05-20T08:32:53;101434.31;;;21.78;33.90
63343;BME280;49465;57.664;39.686;2023-05-20T08:35:22;101435.31;;;21.77;33.85
63343;BME280;49465;57.664;39.686;2023-05-20T08:37:51;101437.53;;;21.81;34.44
63343;BME280;49465;57.664;39.686;2023-05-20T08:40:19;101435.03;;;21.89;34.30
63343;BME280;49465;57.664;39.686;2023-05-20T08:42:48;101428.22;;;21.95;33.97
63343;BME280;49465;57.664;39.686;2023-05-20T08:45:17;101429.09;;;21.96;33.86
63343;BME280;49465;57.664;39.686;2023-05-20T08:47:44;101418.25;;;21.97;33.74
63343;BME280;49465;57.664;39.686;2023-05-20T08:50:12;101417.00;;;22.01;33.35
63343;BME280;49465;57.664;39.686;2023-05-20T08:52:44;101408.56;;;21.96;33.34
63343;BME280;49465;57.664;39.686;2023-05-20T08:55:16;101414.78;;;21.87;33.43
63343;BME280;49465;57.664;39.686;2023-05-20T08:57:43;101413.13;;;21.76;33.03
63343;BME280;49465;57.664;39.686;2023-05-20T09:00:16;101407.03;;;21.94;33.23
63343;BME280;49465;57.664;39.686;2023-05-20T09:02:44;101414.78;;;21.87;33.21
63343;BME280;49465;57.664;39.686;2023-05-20T09:05:11;101408.59;;;21.86;33.38
63343;BME280;49465;57.664;39.686;2023-05-20T09:07:38;101404.69;;;21.81;33.16
63343;BME280;49465;57.664;39.686;2023-05-20T09:10:07;101399.75;;;21.86;32.93
63343;BME280;49465;57.664;39.686;2023-05-20T09:12:34;101403.00;;;21.80;33.17
63343;BME280;49465;57.664;39.686;2023-05-20T09:15:01;101406.09;;;21.75;33.23
63343;BME280;49465;57.664;39.686;2023-05-20T09:17:27;101406.09;;;21.75;33.13
63343;BME280;49465;57.664;39.686;2023-05-20T09:19:59;101413.69;;;21.80;33.11
63343;BME280;49465;57.664;39.686;2023-05-20T09:22:26;101408.78;;;21.65;32.85
63343;BME280;49465;57.664;39.686;2023-05-20T09:24:54;101402.75;;;21.63;33.05
63343;BME280;49465;57.664;39.686;2023-05-20T09:27:21;101414.44;;;21.52;33.13
63343;BME280;49465;57.664;39.686;2023-05-20T09:29:48;101399.84;;;21.47;33.56
63343;BME280;49465;57.664;39.686;2023-05-20T09:32:15;101413.72;;;21.41;33.29
63343;BME280;49465;57.664;39.686;2023-05-20T09:34:42;101410.06;;;21.22;33.28
63343;BME280;49465;57.664;39.686;2023-05-20T09:37:10;101423.53;;;21.11;33.07
63343;BME280;49465;57.664;39.686;2023-05-20T09:42:20;101406.00;;;21.18;33.31
63343;BME280;49465;57.664;39.686;2023-05-20T09:44:49;101406.00;;;21.08;33.50
63343;BME280;49465;57.664;39.686;2023-05-20T09:47:16;101412.03;;;21.01;33.70
63343;BME280;49465;57.664;39.686;2023-05-20T09:49:43;101417.09;;;21.04;34.10
63343;BME280;49465;57.664;39.686;2023-05-20T09:52:10;101408.28;;;21.13;34.06
63343;BME280;49465;57.664;39.686;2023-05-20T09:54:38;101417.50;;;21.09;34.53
63343;BME280;49465;57.664;39.686;2023-05-20T09:57:04;101416.41;;;21.11;35.02
63343;BME280;49465;57.664;39.686;2023-05-20T09:59:32;101425.13;;;21.13;34.92
63343;BME280;49465;57.664;39.686;2023-05-20T10:02:04;101416.81;;;21.17;34.81
63343;BME280;49465;57.664;39.686;2023-05-20T10:21:03;101416.53;;;21.59;36.14
63343;BME280;49465;57.664;39.686;2023-05-20T10:23:47;101411.03;;;21.70;35.63
63343;BME280;49465;57.664;39.686;2023-05-20T10:26:17;101409.78;;;21.64;35.91
63343;BME280;49465;57.664;39.686;2023-05-20T10:28:47;101422.25;;;21.73;35.89
63343;BME280;49465;57.664;39.686;2023-05-20T10:31:22;101423.78;;;21.86;35.91
63343;BME280;49465;57.664;39.686;2023-05-20T10:33:54;101418.72;;;21.83;35.78
63343;BME280;49465;57.664;39.686;2023-05-20T10:36:27;101420.28;;;21.76;36.11
63343;BME280;49465;57.664;39.686;2023-05-20T10:39:02;101417.56;;;21.95;35.46
63343;BME280;49465;57.664;39.686;2023-05-20T10:41:34;101430.09;;;21.85;35.75
63343;BME280;49465;57.664;39.686;2023-05-20T10:44:05;101421.78;;;21.98;35.52
63343;BME280;49465;57.664;39.686;2023-05-20T10:46:32;101438.63;;;21.98;35.52
63343;BME280;49465;57.664;39.686;2023-05-20T10:49:04;101418.66;;;22.02;35.72
63343;BME280;49465;57.664;39.686;2023-05-20T10:51:35;101432.25;;;22.09;35.57
63343;BME280;49465;57.664;39.686;2023-05-20T10:54:03;101433.56;;;21.95;36.06
63343;BME280;49465;57.664;39.686;2023-05-20T10:56:32;101433.56;;;21.95;35.85
63343;BME280;49465;57.664;39.686;2023-05-20T10:59:01;101445.56;;;21.71;36.66
63343;BME280;49465;57.664;39.686;2023-05-20T11:01:28;101446.28;;;21.64;37.71
63343;BME280;49465;57.664;39.686;2023-05-20T11:03:55;101444.31;;;21.66;37.75
63343;BME280;49465;57.664;39.686;2023-05-20T11:06:27;101441.81;;;21.64;37.47
63343;BME280;49465;57.664;39.686;2023-05-20T11:08:54;101447.03;;;21.46;37.70
63343;BME280;49465;57.664;39.686;2023-05-20T11:11:22;101449.97;;;21.43;37.79
63343;BME280;49465;57.664;39.686;2023-05-20T11:13:51;101441.09;;;21.43;38.11
63343;BME280;49465;57.664;39.686;2023-05-20T11:16:19;101450.22;;;21.30;38.44
63343;BME280;49465;57.664;39.686;2023-05-20T11:18:48;101446.00;;;21.18;38.47
63343;BME280;49465;57.664;39.686;2023-05-20T11:21:15;101445.72;;;21.02;39.29
63343;BME280;49465;57.664;39.686;2023-05-20T11:23:42;101437.59;;;21.03;39.87
63343;BME280;49465;57.664;39.686;2023-05-20T11:26:08;101446.00;;;20.99;39.68
63343;BME280;49465;57.664;39.686;2023-05-20T11:28:36;101447.13;;;20.96;39.64
63343;BME280;49465;57.664;39.686;2023-05-20T11:31:04;101448.66;;;20.99;40.07
63343;BME280;49465;57.664;39.686;2023-05-20T11:33:33;101437.84;;;20.90;40.21
63343;BME280;49465;57.664;39.686;2023-05-20T11:36:01;101440.50;;;20.81;40.62
63343;BME280;49465;57.664;39.686;2023-05-20T11:38:30;101442.72;;;20.76;40.76
63343;BME280;49465;57.664;39.686;2023-05-20T11:40:57;101434.44;;;20.69;40.22
63343;BME280;49465;57.664;39.686;2023-05-20T11:43:24;101439.06;;;20.67;41.13
63343;BME280;49465;57.664;39.686;2023-05-20T11:45:56;101437.13;;;20.69;40.95
63343;BME280;49465;57.664;39.686;2023-05-20T11:48:24;101446.78;;;20.60;41.28
63343;BME280;49465;57.664;39.686;2023-05-20T11:50:53;101446.88;;;20.59;41.68
63343;BME280;49465;57.664;39.686;2023-05-20T11:53:23;101444.06;;;20.50;41.56
63343;BME280;49465;57.664;39.686;2023-05-20T11:55:58;101439.91;;;20.67;40.84
63343;BME280;49465;57.664;39.686;2023-05-20T11:58:31;101448.19;;;20.64;41.55
63343;BME280;49465;57.664;39.686;2023-05-20T12:00:58;101446.53;;;20.42;41.57
63343;BME280;49465;57.664;39.686;2023-05-20T12:03:24;101447.78;;;20.38;42.10
63343;BME280;49465;57.664;39.686;2023-05-20T12:05:51;101443.16;;;20.40;42.61
63343;BME280;49465;57.664;39.686;2023-05-20T12:08:20;101445.28;;;20.37;42.08
63343;BME280;49465;57.664;39.686;2023-05-20T12:10:47;101442.03;;;20.33;42.49
63343;BME280;49465;57.664;39.686;2023-05-20T12:13:14;101444.94;;;20.30;42.59
63343;BME280;49465;57.664;39.686;2023-05-20T12:15:40;101448.59;;;20.29;42.88
63343;BME280;49465;57.664;39.686;2023-05-20T12:18:12;101451.53;;;20.26;42.78
63343;BME280;49465;57.664;39.686;2023-05-20T12:20:38;101449.69;;;20.26;43.05
63343;BME280;49465;57.664;39.686;2023-05-20T12:23:05;101442.13;;;20.22;42.56
63343;BME280;49465;57.664;39.686;2023-05-20T12:25:31;101453.44;;;20.14;42.67
63343;BME280;49465;57.664;39.686;2023-05-20T12:28:00;101457.22;;;20.11;42.95
63343;BME280;49465;57.664;39.686;2023-05-20T12:30:26;101446.56;;;20.11;42.78
63343;BME280;49465;57.664;39.686;2023-05-20T12:32:52;101452.16;;;20.08;42.89
63343;BME280;49465;57.664;39.686;2023-05-20T12:35:34;101447.44;;;20.22;42.70
63343;BME280;49465;57.664;39.686;2023-05-20T12:38:01;101440.06;;;20.04;43.21
63343;BME280;49465;57.664;39.686;2023-05-20T12:40:30;101450.72;;;20.04;43.74
63343;BME280;49465;57.664;39.686;2023-05-20T12:42:56;101437.41;;;20.04;43.79
63343;BME280;49465;57.664;39.686;2023-05-20T12:45:23;101443.19;;;20.09;43.56
63343;BME280;49465;57.664;39.686;2023-05-20T12:47:50;101441.38;;;20.10;43.38
63343;BME280;49465;57.664;39.686;2023-05-20T12:50:16;101444.03;;;20.10;42.97
63343;BME280;49465;57.664;39.686;2023-05-20T12:52:45;101438.59;;;20.11;43.21
63343;BME280;49465;57.664;39.686;2023-05-20T12:55:12;101438.28;;;20.14;43.35
63343;BME280;49465;57.664;39.686;2023-05-20T12:57:43;101438.75;;;20.20;43.02
63343;BME280;49465;57.664;39.686;2023-05-20T13:00:11;101436.22;;;20.18;43.06
63343;BME280;49465;57.664;39.686;2023-05-20T13:02:38;101444.06;;;20.20;43.02